createdAt,value
2023-02-01T00:01:29.833Z,99475.03
2023-02-01T00:06:36.279Z,99479.31
2023-02-01T00:11:44.367Z,99482.75
2023-02-01T00:16:50.931Z,99495.63
2023-02-01T00:21:57.383Z,99505.94
2023-02-01T00:27:05.121Z,99499.09
2023-02-01T00:32:11.166Z,99511.13
2023-02-01T00:37:17.435Z,99510.28
2023-02-01T00:42:25.442Z,99511.16
2023-02-01T00:47:31.884Z,99502.56
2023-02-01T00:52:38.153Z,99506.91
2023-02-01T00:57:45.783Z,99506.06
2023-02-01T01:02:51.842Z,99502.66
2023-02-01T01:07:58.088Z,99516.41
2023-02-01T01:13:08.368Z,99523.31
2023-02-01T01:18:14.994Z,99509.59
2023-02-01T01:23:21.963Z,99513.06
2023-02-01T01:28:29.713Z,99518.22
2023-02-01T01:33:36.128Z,99525.13
2023-02-01T01:38:43.881Z,99533.69
2023-02-01T01:44:00.945Z,99529.41
2023-02-01T01:49:13.168Z,99534.53
2023-02-01T01:54:24.323Z,99526.78
2023-02-01T01:59:34.072Z,99530.28
2023-02-01T02:04:42.056Z,99525.13
2023-02-01T02:10:00.189Z,99529.41
2023-02-01T02:15:11.437Z,99537.16
2023-02-01T02:21:12.519Z,99539.75
2023-02-01T02:26:45.688Z,99534.59
2023-02-01T02:32:24.528Z,99551.78
2023-02-01T02:37:41.811Z,99551.78
2023-02-01T02:43:14.874Z,99550.09
2023-02-01T02:48:28.920Z,99565.50
2023-02-01T02:54:01.350Z,99569.75
2023-02-01T02:59:27.001Z,99568.06
2023-02-01T03:04:33.370Z,99561.16
2023-02-01T03:09:46.417Z,99575.75
2023-02-01T03:15:00.291Z,99576.63
2023-02-01T03:20:08.839Z,99577.47
2023-02-01T03:25:22.982Z,99588.59
2023-02-01T03:30:34.344Z,99580.00
2023-02-01T03:36:03.855Z,99590.28
2023-02-01T03:41:20.551Z,99594.56
2023-02-01T03:46:35.257Z,99585.09
2023-02-01T03:51:44.392Z,99588.53
2023-02-01T03:56:53.577Z,99575.66
2023-02-01T04:01:59.805Z,99587.69
2023-02-01T04:07:06.603Z,99582.50
2023-02-01T04:12:14.319Z,99577.34
2023-02-01T04:17:20.587Z,99573.91
2023-02-01T04:22:26.733Z,99582.47
2023-02-01T04:27:35.902Z,99586.75
2023-02-01T04:32:42.398Z,99588.47
2023-02-01T04:37:48.686Z,99596.22
2023-02-01T04:42:56.833Z,99597.91
2023-02-01T04:48:03.059Z,99599.63
2023-02-01T04:53:09.728Z,99590.16
2023-02-01T04:58:17.584Z,99598.72
2023-02-01T05:03:24.890Z,99596.16
2023-02-01T05:08:31.263Z,99604.75
2023-02-01T05:13:53.280Z,99591.00
2023-02-01T05:19:01.453Z,99595.28
2023-02-01T05:24:14.399Z,99586.69
2023-02-01T05:29:24.060Z,99593.56
2023-02-01T05:34:31.674Z,99592.72
2023-02-01T05:39:37.946Z,99596.13
2023-02-01T05:44:46.143Z,99596.97
2023-02-01T05:49:52.453Z,99597.88
2023-02-01T05:54:59.113Z,99591.84
2023-02-01T06:00:08.969Z,99591.00
2023-02-01T06:05:19.204Z,99580.69
2023-02-01T06:10:26.049Z,99585.84
2023-02-01T06:15:34.147Z,99585.00
2023-02-01T06:20:40.714Z,99572.13
2023-02-01T06:25:47.373Z,99578.13
2023-02-01T06:30:55.395Z,99587.59
2023-02-01T06:36:03.232Z,99583.28
2023-02-01T06:41:10.128Z,99593.59
2023-02-01T06:46:17.991Z,99605.63
2023-02-01T06:51:27.947Z,99600.47
2023-02-01T06:56:35.548Z,99597.03
2023-02-01T07:01:43.412Z,99586.72
2023-02-01T07:06:49.887Z,99592.75
2023-02-01T07:11:56.143Z,99590.19
2023-02-01T07:17:03.930Z,99607.38
2023-02-01T07:22:10.450Z,99598.78
2023-02-01T07:27:16.771Z,99595.34
2023-02-01T07:32:24.703Z,99597.91
2023-02-01T07:37:31.155Z,99594.47
2023-02-01T07:42:37.870Z,99597.88
2023-02-01T07:47:46.963Z,99593.59
2023-02-01T07:52:54.707Z,99600.44
2023-02-01T07:58:01.776Z,99591.81
2023-02-01T08:03:09.426Z,99590.97
2023-02-01T08:08:16.645Z,99581.50
2023-02-01T08:13:22.712Z,99587.47
2023-02-01T08:18:31.086Z,99584.00
2023-02-01T08:23:39.172Z,99579.72
2023-02-01T08:28:47.989Z,99582.28
2023-02-01T08:33:58.310Z,99578.00
2023-02-01T08:39:07.056Z,99583.97
2023-02-01T08:44:13.375Z,99586.53
2023-02-01T08:49:21.207Z,99587.38
2023-02-01T08:54:27.614Z,99597.69
2023-02-01T08:59:33.938Z,99594.19
2023-02-01T09:04:43.210Z,99612.25
2023-02-01T09:09:49.427Z,99607.06
2023-02-01T09:14:55.800Z,99580.34
2023-02-01T09:20:04.257Z,99582.91
2023-02-01T09:25:14.022Z,99578.59
2023-02-01T09:30:20.709Z,99573.31
2023-02-01T09:35:28.983Z,99585.31
2023-02-01T09:40:40.382Z,99587.84
2023-02-01T09:46:00.320Z,99598.13
2023-02-01T09:51:16.161Z,99586.94
2023-02-01T09:56:27.366Z,99583.47
2023-02-01T10:01:35.722Z,99586.00
2023-02-01T10:07:03.440Z,99587.69
2023-02-01T10:13:00.506Z,99588.47
2023-02-01T10:18:46.350Z,99577.13
2023-02-01T10:24:20.628Z,99578.84
2023-02-01T10:29:33.822Z,99578.72
2023-02-01T10:34:40.153Z,99578.50
2023-02-01T10:39:50.217Z,99581.81
2023-02-01T10:45:04.052Z,99569.75
2023-02-01T10:50:22.758Z,99581.03
2023-02-01T10:55:53.127Z,99575.06
2023-02-01T11:01:04.196Z,99575.94
2023-02-01T11:06:30.929Z,99565.63
2023-02-01T11:11:58.505Z,99563.97
2023-02-01T11:17:23.622Z,99564.84
2023-02-01T11:22:31.439Z,99555.34
2023-02-01T11:27:53.136Z,99545.78
2023-02-01T11:33:01.893Z,99553.53
2023-02-01T11:38:22.186Z,99552.66
2023-02-01T11:43:31.701Z,99550.06
2023-02-01T11:48:38.081Z,99557.78
2023-02-01T11:54:06.276Z,99559.50
2023-02-01T11:59:39.063Z,99558.63
2023-02-01T12:05:10.945Z,99550.88
2023-02-01T12:10:33.002Z,99550.88
2023-02-01T12:15:59.796Z,99545.69
2023-02-01T12:21:25.464Z,99547.41
2023-02-01T12:27:18.124Z,99536.16
2023-02-01T12:32:49.065Z,99532.72
2023-02-01T12:38:19.270Z,99525.72
2023-02-01T12:43:40.855Z,99524.72
2023-02-01T12:49:01.651Z,99522.06
2023-02-01T12:54:16.345Z,99521.19
2023-02-01T12:59:30.265Z,99521.22
2023-02-01T13:04:46.324Z,99529.84
2023-02-01T13:10:01.252Z,99531.59
2023-02-01T13:15:19.014Z,99522.09
2023-02-01T13:20:34.394Z,99532.44
2023-02-01T13:25:51.416Z,99530.78
2023-02-01T13:31:49.525Z,99535.16
2023-02-01T13:37:19.673Z,99533.50
2023-02-01T13:42:30.264Z,99527.47
2023-02-01T13:47:43.540Z,99530.06
2023-02-01T13:52:58.093Z,99536.97
2023-02-01T13:58:16.742Z,99530.88
2023-02-01T14:03:25.435Z,99534.34
2023-02-01T14:09:08.287Z,99536.88
2023-02-01T14:14:53.710Z,99531.66
2023-02-01T14:20:47.002Z,99538.56
2023-02-01T14:26:16.239Z,99533.41
2023-02-01T14:31:45.028Z,99541.16
2023-02-01T14:36:59.405Z,99548.91
2023-02-01T14:42:23.277Z,99528.28
2023-02-01T14:47:35.882Z,99541.22
2023-02-01T14:52:47.598Z,99542.16
2023-02-01T14:58:00.872Z,99543.84
2023-02-01T15:03:42.585Z,99537.84
2023-02-01T15:08:49.674Z,99540.50
2023-02-01T15:13:59.381Z,99543.09
2023-02-01T15:19:16.416Z,99547.38
2023-02-01T15:24:26.299Z,99556.84
2023-02-01T15:29:35.371Z,99549.09
2023-02-01T15:34:51.844Z,99555.19
2023-02-01T15:40:23.303Z,99550.91
2023-02-01T15:45:35.480Z,99578.47
2023-02-01T15:50:43.649Z,99574.19
2023-02-01T15:55:54.645Z,99563.03
2023-02-01T16:01:08.286Z,99573.34
2023-02-01T16:06:30.670Z,99569.91
2023-02-01T16:11:51.063Z,99581.97
2023-02-01T16:17:01.667Z,99581.97
2023-02-01T16:22:08.195Z,99579.38
2023-02-01T16:27:15.868Z,99573.38
2023-02-01T16:32:25.272Z,99568.25
2023-02-01T16:37:33.681Z,99564.81
2023-02-01T16:42:42.429Z,99568.28
2023-02-01T16:47:53.710Z,99576.03
2023-02-01T16:53:00.573Z,99591.50
2023-02-01T16:58:10.714Z,99572.63
2023-02-01T17:03:20.791Z,99576.94
2023-02-01T17:08:35.361Z,99582.09
2023-02-01T17:13:46.760Z,99586.41
2023-02-01T17:19:00.523Z,99584.69
2023-02-01T17:24:09.362Z,99586.47
2023-02-01T17:29:17.242Z,99595.06
2023-02-01T17:34:26.677Z,99608.84
2023-02-01T17:39:51.564Z,99600.25
2023-02-01T17:45:04.205Z,99607.16
2023-02-01T17:50:16.087Z,99609.75
2023-02-01T17:55:27.123Z,99609.75
2023-02-01T18:00:38.103Z,99612.38
2023-02-01T18:05:51.758Z,99608.09
2023-02-01T18:11:01.856Z,99606.38
2023-02-01T18:16:25.147Z,99617.59
2023-02-01T18:21:42.063Z,99609.84
2023-02-01T18:26:54.190Z,99609.88
2023-02-01T18:32:07.095Z,99599.56
2023-02-01T18:37:17.912Z,99603.88
2023-02-01T18:42:27.515Z,99601.28
2023-02-01T18:47:35.805Z,99603.88
2023-02-01T18:52:47.440Z,99600.47
2023-02-01T18:57:58.623Z,99597.91
2023-02-01T19:03:07.667Z,99600.50
2023-02-01T19:08:18.272Z,99597.94
2023-02-01T19:13:30.493Z,99594.50
2023-02-01T19:18:40.850Z,99584.19
2023-02-01T19:23:50.773Z,99579.03
2023-02-01T19:29:02.063Z,99573.06
2023-02-01T19:34:13.367Z,99571.41
2023-02-01T19:39:29.972Z,99575.66
2023-02-01T19:44:40.331Z,99561.94
2023-02-01T19:49:48.347Z,99564.53
2023-02-01T19:55:01.865Z,99562.88
2023-02-01T20:00:16.278Z,99568.06
2023-02-01T20:05:25.837Z,99562.06
2023-02-01T20:10:37.365Z,99556.13
2023-02-01T20:15:47.450Z,99575.88
2023-02-01T20:20:59.506Z,99561.34
2023-02-01T20:26:16.368Z,99551.00
2023-02-01T20:31:30.428Z,99543.22
2023-02-01T20:36:40.578Z,99535.56
2023-02-01T20:41:51.521Z,99535.56
2023-02-01T20:46:59.866Z,99539.00
2023-02-01T20:52:08.359Z,99530.44
2023-02-01T20:57:21.189Z,99545.91
2023-02-01T21:02:29.755Z,99536.44
2023-02-01T21:07:39.087Z,99526.13
2023-02-01T21:12:51.631Z,99533.00
2023-02-01T21:18:05.521Z,99534.75
2023-02-01T21:23:14.184Z,99531.34
2023-02-01T21:28:23.801Z,99527.06
2023-02-01T21:33:31.449Z,99536.53
2023-02-01T21:38:40.353Z,99530.56
2023-02-01T21:43:51.676Z,99527.97
2023-02-01T21:49:05.372Z,99531.41
2023-02-01T21:54:15.270Z,99532.25
2023-02-01T21:59:23.438Z,99529.66
2023-02-01T22:04:30.061Z,99527.88
2023-02-01T22:09:39.310Z,99527.88
2023-02-01T22:14:49.998Z,99529.63
2023-02-01T22:19:56.780Z,99527.88
2023-02-01T22:25:04.905Z,99527.88
2023-02-01T22:30:16.686Z,99523.63
2023-02-01T22:35:23.647Z,99524.50
2023-02-01T22:40:30.738Z,99521.94
2023-02-01T22:45:39.058Z,99519.41
2023-02-01T22:50:45.990Z,99516.00
2023-02-01T22:55:52.355Z,99519.47
2023-02-01T23:01:09.858Z,99522.91
2023-02-01T23:06:18.860Z,99522.91
2023-02-01T23:11:26.051Z,99517.78
2023-02-01T23:16:34.303Z,99517.78
2023-02-01T23:21:40.743Z,99514.31
2023-02-01T23:26:47.373Z,99521.19
2023-02-01T23:31:55.603Z,99522.03
2023-02-01T23:37:02.294Z,99520.34
2023-02-01T23:42:09.054Z,99522.03
2023-02-01T23:47:17.128Z,99520.31
2023-02-01T23:52:24.078Z,99520.34
2023-02-01T23:57:30.711Z,99516.03
